sensor_id;sensor_type;location;lat;lon;timestamp;temperature;humidity
44767;DHT22;30487;48.716;9.272;2024-02-15T00:00:40;11.00;99.90
44767;DHT22;30487;48.716;9.272;2024-02-15T00:03:05;10.90;99.90
44767;DHT22;30487;48.716;9.272;2024-02-15T00:05:34;10.90;99.90
44767;DHT22;30487;48.716;9.272;2024-02-15T00:08:03;10.90;99.90
44767;DHT22;30487;48.716;9.272;2024-02-15T00:10:28;10.90;99.90
44767;DHT22;30487;48.716;9.272;2024-02-15T00:12:54;10.90;99.90
44767;DHT22;30487;48.716;9.272;2024-02-15T00:15:20;10.90;99.90
44767;DHT22;30487;48.716;9.272;2024-02-15T00:17:46;10.90;99.90
44767;DHT22;30487;48.716;9.272;2024-02-15T00:20:14;10.90;99.90
44767;DHT22;30487;48.716;9.272;2024-02-15T00:22:40;10.90;99.90
44767;DHT22;30487;48.716;9.272;2024-02-15T00:25:08;10.90;99.90
44767;DHT22;30487;48.716;9.272;2024-02-15T00:27:35;10.90;99.90
44767;DHT22;30487;48.716;9.272;2024-02-15T00:30:01;10.90;99.90
44767;DHT22;30487;48.716;9.272;2024-02-15T00:32:27;10.90;99.90
44767;DHT22;30487;48.716;9.272;2024-02-15T00:34:52;10.80;99.90
44767;DHT22;30487;48.716;9.272;2024-02-15T00:37:19;10.80;99.90
44767;DHT22;30487;48.716;9.272;2024-02-15T00:39:44;10.80;99.90
44767;DHT22;30487;48.716;9.272;2024-02-15T00:42:10;10.90;99.90
44767;DHT22;30487;48.716;9.272;2024-02-15T00:44:36;10.80;99.90
44767;DHT22;30487;48.716;9.272;2024-02-15T00:47:02;10.90;99.90
44767;DHT22;30487;48.716;9.272;2024-02-15T00:49:28;10.90;99.90
44767;DHT22;30487;48.716;9.272;2024-02-15T00:51:53;10.90;99.90
44767;DHT22;30487;48.716;9.272;2024-02-15T00:54:19;10.80;99.90
44767;DHT22;30487;48.716;9.272;2024-02-15T00:56:45;10.90;99.90
44767;DHT22;30487;48.716;9.272;2024-02-15T00:59:10;10.80;99.90
44767;DHT22;30487;48.716;9.272;2024-02-15T01:01:36;10.80;99.90
44767;DHT22;30487;48.716;9.272;2024-02-15T01:04:05;10.80;99.90
44767;DHT22;30487;48.716;9.272;2024-02-15T01:06:30;10.80;99.90
44767;DHT22;30487;48.716;9.272;2024-02-15T01:08:56;10.80;99.90
44767;DHT22;30487;48.716;9.272;2024-02-15T01:11:22;10.80;99.90
44767;DHT22;30487;48.716;9.272;2024-02-15T01:13:49;10.80;99.90
44767;DHT22;30487;48.716;9.272;2024-02-15T01:16:16;10.70;99.90
44767;DHT22;30487;48.716;9.272;2024-02-15T01:18:42;10.80;99.90
44767;DHT22;30487;48.716;9.272;2024-02-15T01:21:07;10.80;99.90
44767;DHT22;30487;48.716;9.272;2024-02-15T01:23:34;10.80;99.90
44767;DHT22;30487;48.716;9.272;2024-02-15T01:26:02;10.70;99.90
44767;DHT22;30487;48.716;9.272;2024-02-15T01:28:27;10.70;99.90
44767;DHT22;30487;48.716;9.272;2024-02-15T01:30:53;10.70;99.90
44767;DHT22;30487;48.716;9.272;2024-02-15T01:33:20;10.70;99.90
44767;DHT22;30487;48.716;9.272;2024-02-15T01:35:45;10.70;99.90
44767;DHT22;30487;48.716;9.272;2024-02-15T01:38:11;10.70;99.90
44767;DHT22;30487;48.716;9.272;2024-02-15T01:40:36;10.70;99.90
44767;DHT22;30487;48.716;9.272;2024-02-15T01:43:03;10.60;99.90
44767;DHT22;30487;48.716;9.272;2024-02-15T01:45:29;10.60;99.90
44767;DHT22;30487;48.716;9.272;2024-02-15T01:47:55;10.60;99.90
44767;DHT22;30487;48.716;9.272;2024-02-15T01:50:22;10.60;99.90
44767;DHT22;30487;48.716;9.272;2024-02-15T01:52:49;10.60;99.90
44767;DHT22;30487;48.716;9.272;2024-02-15T01:55:17;10.60;99.90
44767;DHT22;30487;48.716;9.272;2024-02-15T01:57:48;10.60;99.90
44767;DHT22;30487;48.716;9.272;2024-02-15T02:00:18;10.60;99.90
44767;DHT22;30487;48.716;9.272;2024-02-15T02:02:45;10.60;99.90
44767;DHT22;30487;48.716;9.272;2024-02-15T02:05:11;10.60;99.90
44767;DHT22;30487;48.716;9.272;2024-02-15T02:07:37;10.60;99.90
44767;DHT22;30487;48.716;9.272;2024-02-15T02:10:04;10.50;99.90
44767;DHT22;30487;48.716;9.272;2024-02-15T02:12:30;10.50;99.90
44767;DHT22;30487;48.716;9.272;2024-02-15T02:14:56;10.50;99.90
44767;DHT22;30487;48.716;9.272;2024-02-15T02:17:22;10.50;99.90
44767;DHT22;30487;48.716;9.272;2024-02-15T02:19:48;10.50;99.90
44767;DHT22;30487;48.716;9.272;2024-02-15T02:22:16;10.50;99.90
44767;DHT22;30487;48.716;9.272;2024-02-15T02:25:04;10.50;99.90
44767;DHT22;30487;48.716;9.272;2024-02-15T02:27:32;10.50;99.90
44767;DHT22;30487;48.716;9.272;2024-02-15T02:29:58;10.40;99.90
44767;DHT22;30487;48.716;9.272;2024-02-15T02:32:25;10.40;99.90
44767;DHT22;30487;48.716;9.272;2024-02-15T02:34:51;10.30;99.90
44767;DHT22;30487;48.716;9.272;2024-02-15T02:37:25;10.30;99.90
44767;DHT22;30487;48.716;9.272;2024-02-15T02:39:51;10.30;99.90
44767;DHT22;30487;48.716;9.272;2024-02-15T02:42:17;10.30;99.90
44767;DHT22;30487;48.716;9.272;2024-02-15T02:44:43;10.30;99.90
44767;DHT22;30487;48.716;9.272;2024-02-15T02:47:08;10.30;99.90
44767;DHT22;30487;48.716;9.272;2024-02-15T02:49:37;10.20;99.90
44767;DHT22;30487;48.716;9.272;2024-02-15T02:52:03;10.30;99.90
44767;DHT22;30487;48.716;9.272;2024-02-15T02:54:29;10.20;99.90
44767;DHT22;30487;48.716;9.272;2024-02-15T02:56:55;10.20;99.90
44767;DHT22;30487;48.716;9.272;2024-02-15T02:59:21;10.10;99.90
44767;DHT22;30487;48.716;9.272;2024-02-15T03:01:47;10.20;99.90
44767;DHT22;30487;48.716;9.272;2024-02-15T03:04:15;10.10;99.90
44767;DHT22;30487;48.716;9.272;2024-02-15T03:06:42;10.10;99.90
44767;DHT22;30487;48.716;9.272;2024-02-15T03:09:08;10.10;99.90
44767;DHT22;30487;48.716;9.272;2024-02-15T03:11:35;10.00;99.90
44767;DHT22;30487;48.716;9.272;2024-02-15T03:14:01;10.10;99.90
44767;DHT22;30487;48.716;9.272;2024-02-15T03:16:30;10.00;99.90
44767;DHT22;30487;48.716;9.272;2024-02-15T03:18:56;10.00;99.90
44767;DHT22;30487;48.716;9.272;2024-02-15T03:21:21;10.00;99.90
44767;DHT22;30487;48.716;9.272;2024-02-15T03:23:47;10.00;99.90
44767;DHT22;30487;48.716;9.272;2024-02-15T03:26:12;9.90;99.90
44767;DHT22;30487;48.716;9.272;2024-02-15T03:28:39;9.90;99.90
44767;DHT22;30487;48.716;9.272;2024-02-15T03:31:05;9.90;99.90
44767;DHT22;30487;48.716;9.272;2024-02-15T03:33:30;9.90;99.90
44767;DHT22;30487;48.716;9.272;2024-02-15T03:36:00;9.80;99.90
44767;DHT22;30487;48.716;9.272;2024-02-15T03:38:27;9.80;99.90
44767;DHT22;30487;48.716;9.272;2024-02-15T03:40:55;9.70;99.90
44767;DHT22;30487;48.716;9.272;2024-02-15T03:43:20;9.70;99.90
44767;DHT22;30487;48.716;9.272;2024-02-15T03:45:46;9.70;99.90
44767;DHT22;30487;48.716;9.272;2024-02-15T03:48:12;9.60;99.90
44767;DHT22;30487;48.716;9.272;2024-02-15T03:50:37;9.60;99.90
44767;DHT22;30487;48.716;9.272;2024-02-15T03:53:04;9.60;99.90
44767;DHT22;30487;48.716;9.272;2024-02-15T03:55:29;9.50;99.90
44767;DHT22;30487;48.716;9.272;2024-02-15T03:57:55;9.50;99.90
44767;DHT22;30487;48.716;9.272;2024-02-15T04:00:21;9.60;99.90
44767;DHT22;30487;48.716;9.272;2024-02-15T04:02:47;9.60;99.90
44767;DHT22;30487;48.716;9.272;2024-02-15T04:05:16;9.50;99.90
44767;DHT22;30487;48.716;9.272;2024-02-15T04:07:46;9.50;99.90
44767;DHT22;30487;48.716;9.272;2024-02-15T04:10:12;9.40;99.90
44767;DHT22;30487;48.716;9.272;2024-02-15T04:12:37;9.40;99.90
44767;DHT22;30487;48.716;9.272;2024-02-15T04:15:04;9.40;99.90
44767;DHT22;30487;48.716;9.272;2024-02-15T04:17:40;9.40;99.90
44767;DHT22;30487;48.716;9.272;2024-02-15T04:20:06;9.40;99.90
44767;DHT22;30487;48.716;9.272;2024-02-15T04:22:33;9.40;99.90
44767;DHT22;30487;48.716;9.272;2024-02-15T04:25:05;9.40;99.90
44767;DHT22;30487;48.716;9.272;2024-02-15T04:27:32;9.40;99.90
44767;DHT22;30487;48.716;9.272;2024-02-15T04:29:58;9.40;99.90
44767;DHT22;30487;48.716;9.272;2024-02-15T04:32:23;9.40;99.90
44767;DHT22;30487;48.716;9.272;2024-02-15T04:34:49;9.40;99.90
44767;DHT22;30487;48.716;9.272;2024-02-15T04:37:14;9.40;99.90
44767;DHT22;30487;48.716;9.272;2024-02-15T04:39:42;9.40;99.90
44767;DHT22;30487;48.716;9.272;2024-02-15T04:42:07;9.40;99.90
44767;DHT22;30487;48.716;9.272;2024-02-15T04:44:39;9.40;99.90
44767;DHT22;30487;48.716;9.272;2024-02-15T04:47:05;9.40;99.90
44767;DHT22;30487;48.716;9.272;2024-02-15T04:49:34;9.40;99.90
44767;DHT22;30487;48.716;9.272;2024-02-15T04:51:59;9.40;99.90
44767;DHT22;30487;48.716;9.272;2024-02-15T04:54:29;9.40;99.90
44767;DHT22;30487;48.716;9.272;2024-02-15T04:56:55;9.40;99.90
44767;DHT22;30487;48.716;9.272;2024-02-15T04:59:22;9.50;99.90
44767;DHT22;30487;48.716;9.272;2024-02-15T05:01:54;9.50;99.90
44767;DHT22;30487;48.716;9.272;2024-02-15T05:04:21;9.50;99.90
44767;DHT22;30487;48.716;9.272;2024-02-15T05:06:48;9.60;99.90
44767;DHT22;30487;48.716;9.272;2024-02-15T05:09:13;9.60;99.90
44767;DHT22;30487;48.716;9.272;2024-02-15T05:11:40;9.60;99.90
44767;DHT22;30487;48.716;9.272;2024-02-15T05:14:07;9.60;99.90
44767;DHT22;30487;48.716;9.272;2024-02-15T05:16:33;9.60;99.90
44767;DHT22;30487;48.716;9.272;2024-02-15T05:18:59;9.60;99.90
44767;DHT22;30487;48.716;9.272;2024-02-15T05:21:25;9.60;99.90
44767;DHT22;30487;48.716;9.272;2024-02-15T05:23:50;9.60;99.90
44767;DHT22;30487;48.716;9.272;2024-02-15T05:26:17;9.60;99.90
44767;DHT22;30487;48.716;9.272;2024-02-15T05:28:51;9.60;99.90
44767;DHT22;30487;48.716;9.272;2024-02-15T05:31:20;9.70;99.90
44767;DHT22;30487;48.716;9.272;2024-02-15T05:33:47;9.60;99.90
44767;DHT22;30487;48.716;9.272;2024-02-15T05:36:13;9.70;99.90
44767;DHT22;30487;48.716;9.272;2024-02-15T05:38:40;9.70;99.90
44767;DHT22;30487;48.716;9.272;2024-02-15T05:41:06;9.70;99.90
44767;DHT22;30487;48.716;9.272;2024-02-15T05:43:34;9.70;99.90
44767;DHT22;30487;48.716;9.272;2024-02-15T05:46:03;9.70;99.90
44767;DHT22;30487;48.716;9.272;2024-02-15T05:48:29;9.70;99.90
44767;DHT22;30487;48.716;9.272;2024-02-15T05:50:55;9.60;99.90
44767;DHT22;30487;48.716;9.272;2024-02-15T05:53:23;9.70;99.90
44767;DHT22;30487;48.716;9.272;2024-02-15T05:55:49;9.60;99.90
44767;DHT22;30487;48.716;9.272;2024-02-15T05:58:15;9.60;99.90
44767;DHT22;30487;48.716;9.272;2024-02-15T06:00:41;9.60;99.90
44767;DHT22;30487;48.716;9.272;2024-02-15T06:03:07;9.60;99.90
44767;DHT22;30487;48.716;9.272;2024-02-15T06:05:34;9.50;99.90
44767;DHT22;30487;48.716;9.272;2024-02-15T06:08:00;9.50;99.90
44767;DHT22;30487;48.716;9.272;2024-02-15T06:10:26;9.50;99.90
44767;DHT22;30487;48.716;9.272;2024-02-15T06:12:51;9.50;99.90
44767;DHT22;30487;48.716;9.272;2024-02-15T06:15:17;9.40;99.90
44767;DHT22;30487;48.716;9.272;2024-02-15T06:17:43;9.40;99.90
44767;DHT22;30487;48.716;9.272;2024-02-15T06:20:14;9.40;99.90
44767;DHT22;30487;48.716;9.272;2024-02-15T06:22:40;9.40;99.90
44767;DHT22;30487;48.716;9.272;2024-02-15T06:25:07;9.30;99.90
44767;DHT22;30487;48.716;9.272;2024-02-15T06:27:32;9.30;99.90
44767;DHT22;30487;48.716;9.272;2024-02-15T06:29:58;9.30;99.90
44767;DHT22;30487;48.716;9.272;2024-02-15T06:32:43;9.30;99.90
44767;DHT22;30487;48.716;9.272;2024-02-15T06:35:27;9.30;99.90
44767;DHT22;30487;48.716;9.272;2024-02-15T06:38:11;9.30;99.90
44767;DHT22;30487;48.716;9.272;2024-02-15T06:40:55;9.30;99.90
44767;DHT22;30487;48.716;9.272;2024-02-15T06:43:21;9.30;99.90
44767;DHT22;30487;48.716;9.272;2024-02-15T06:45:46;9.30;99.90
44767;DHT22;30487;48.716;9.272;2024-02-15T06:48:13;9.30;99.90
44767;DHT22;30487;48.716;9.272;2024-02-15T06:50:39;9.30;99.90
44767;DHT22;30487;48.716;9.272;2024-02-15T06:53:05;9.30;99.90
44767;DHT22;30487;48.716;9.272;2024-02-15T06:55:31;9.30;99.90
44767;DHT22;30487;48.716;9.272;2024-02-15T06:57:56;9.30;99.90
44767;DHT22;30487;48.716;9.272;2024-02-15T07:00:22;9.40;99.90
44767;DHT22;30487;48.716;9.272;2024-02-15T07:02:48;9.40;99.90
44767;DHT22;30487;48.716;9.272;2024-02-15T07:05:14;9.50;99.90
44767;DHT22;30487;48.716;9.272;2024-02-15T07:07:39;9.50;99.90
44767;DHT22;30487;48.716;9.272;2024-02-15T07:10:08;9.60;99.90
44767;DHT22;30487;48.716;9.272;2024-02-15T07:12:34;9.60;99.90
44767;DHT22;30487;48.716;9.272;2024-02-15T07:15:00;9.70;99.90
44767;DHT22;30487;48.716;9.272;2024-02-15T07:17:27;9.70;99.90
44767;DHT22;30487;48.716;9.272;2024-02-15T07:19:53;9.70;99.90
44767;DHT22;30487;48.716;9.272;2024-02-15T07:22:19;9.80;99.90
44767;DHT22;30487;48.716;9.272;2024-02-15T07:24:44;9.80;99.90
44767;DHT22;30487;48.716;9.272;2024-02-15T07:27:10;9.90;99.90
44767;DHT22;30487;48.716;9.272;2024-02-15T07:29:36;10.00;99.90
44767;DHT22;30487;48.716;9.272;2024-02-15T07:32:04;10.10;99.90
44767;DHT22;30487;48.716;9.272;2024-02-15T07:34:30;10.20;99.90
44767;DHT22;30487;48.716;9.272;2024-02-15T07:36:56;10.40;99.90
44767;DHT22;30487;48.716;9.272;2024-02-15T07:39:23;10.90;99.90
44767;DHT22;30487;48.716;9.272;2024-02-15T07:41:51;11.40;99.90
44767;DHT22;30487;48.716;9.272;2024-02-15T07:44:17;11.60;99.90
44767;DHT22;30487;48.716;9.272;2024-02-15T07:46:43;11.90;99.90
44767;DHT22;30487;48.716;9.272;2024-02-15T07:49:09;12.40;99.90
44767;DHT22;30487;48.716;9.272;2024-02-15T07:51:34;12.90;99.90
44767;DHT22;30487;48.716;9.272;2024-02-15T07:54:01;13.40;99.90
44767;DHT22;30487;48.716;9.272;2024-02-15T07:56:27;13.70;99.90
44767;DHT22;30487;48.716;9.272;2024-02-15T07:58:52;14.10;99.90
44767;DHT22;30487;48.716;9.272;2024-02-15T08:01:18;14.30;99.90
44767;DHT22;30487;48.716;9.272;2024-02-15T08:03:47;14.60;99.90
44767;DHT22;30487;48.716;9.272;2024-02-15T08:06:14;14.70;99.90
44767;DHT22;30487;48.716;9.272;2024-02-15T08:08:44;14.90;99.90
44767;DHT22;30487;48.716;9.272;2024-02-15T08:11:16;15.10;99.90
44767;DHT22;30487;48.716;9.272;2024-02-15T08:13:51;15.30;99.90
44767;DHT22;30487;48.716;9.272;2024-02-15T08:16:21;15.50;99.90
44767;DHT22;30487;48.716;9.272;2024-02-15T08:18:52;15.80;99.90
44767;DHT22;30487;48.716;9.272;2024-02-15T08:21:25;16.20;99.90
44767;DHT22;30487;48.716;9.272;2024-02-15T08:23:51;16.70;99.90
44767;DHT22;30487;48.716;9.272;2024-02-15T08:26:17;17.00;99.90
44767;DHT22;30487;48.716;9.272;2024-02-15T08:28:43;17.10;99.90
44767;DHT22;30487;48.716;9.272;2024-02-15T08:31:08;17.00;99.90
44767;DHT22;30487;48.716;9.272;2024-02-15T08:33:35;16.80;99.90
44767;DHT22;30487;48.716;9.272;2024-02-15T08:36:01;16.60;99.90
44767;DHT22;30487;48.716;9.272;2024-02-15T08:38:27;16.70;99.90
44767;DHT22;30487;48.716;9.272;2024-02-15T08:40:53;16.90;99.90
44767;DHT22;30487;48.716;9.272;2024-02-15T08:43:18;17.20;99.90
44767;DHT22;30487;48.716;9.272;2024-02-15T08:45:45;17.40;99.90
44767;DHT22;30487;48.716;9.272;2024-02-15T08:48:11;17.70;99.90
44767;DHT22;30487;48.716;9.272;2024-02-15T08:50:36;17.80;99.90
44767;DHT22;30487;48.716;9.272;2024-02-15T08:53:02;17.90;99.90
44767;DHT22;30487;48.716;9.272;2024-02-15T08:55:32;17.90;99.90
44767;DHT22;30487;48.716;9.272;2024-02-15T08:58:01;17.70;99.90
44767;DHT22;30487;48.716;9.272;2024-02-15T09:00:27;17.30;99.90
44767;DHT22;30487;48.716;9.272;2024-02-15T09:02:53;16.90;99.90
44767;DHT22;30487;48.716;9.272;2024-02-15T09:05:19;16.60;99.90
44767;DHT22;30487;48.716;9.272;2024-02-15T09:07:47;16.30;99.90
44767;DHT22;30487;48.716;9.272;2024-02-15T09:10:14;16.20;99.90
44767;DHT22;30487;48.716;9.272;2024-02-15T09:12:41;16.40;99.90
44767;DHT22;30487;48.716;9.272;2024-02-15T09:15:08;16.70;99.90
44767;DHT22;30487;48.716;9.272;2024-02-15T09:17:35;17.20;99.90
44767;DHT22;30487;48.716;9.272;2024-02-15T09:20:08;17.60;99.90
44767;DHT22;30487;48.716;9.272;2024-02-15T09:25:10;18.60;99.00
44767;DHT22;30487;48.716;9.272;2024-02-15T09:27:35;19.10;98.20
44767;DHT22;30487;48.716;9.272;2024-02-15T09:30:02;19.50;97.40
44767;DHT22;30487;48.716;9.272;2024-02-15T09:32:28;19.90;96.80
44767;DHT22;30487;48.716;9.272;2024-02-15T09:34:54;20.30;96.20
44767;DHT22;30487;48.716;9.272;2024-02-15T09:37:19;20.40;95.30
44767;DHT22;30487;48.716;9.272;2024-02-15T09:39:45;20.70;94.80
44767;DHT22;30487;48.716;9.272;2024-02-15T09:42:11;20.90;94.10
44767;DHT22;30487;48.716;9.272;2024-02-15T09:44:37;21.10;93.30
44767;DHT22;30487;48.716;9.272;2024-02-15T09:47:06;21.40;93.30
44767;DHT22;30487;48.716;9.272;2024-02-15T09:49:39;21.70;92.50
44767;DHT22;30487;48.716;9.272;2024-02-15T09:52:08;22.00;91.80
44767;DHT22;30487;48.716;9.272;2024-02-15T09:54:41;22.20;91.40
44767;DHT22;30487;48.716;9.272;2024-02-15T09:57:10;22.40;90.60
44767;DHT22;30487;48.716;9.272;2024-02-15T09:59:40;22.50;90.20
44767;DHT22;30487;48.716;9.272;2024-02-15T10:02:07;22.50;90.00
44767;DHT22;30487;48.716;9.272;2024-02-15T10:04:39;22.50;89.50
44767;DHT22;30487;48.716;9.272;2024-02-15T10:07:05;22.60;89.20
44767;DHT22;30487;48.716;9.272;2024-02-15T10:09:34;22.90;89.00
44767;DHT22;30487;48.716;9.272;2024-02-15T10:12:02;23.20;87.10
44767;DHT22;30487;48.716;9.272;2024-02-15T10:14:29;23.40;86.40
44767;DHT22;30487;48.716;9.272;2024-02-15T10:16:56;23.60;84.40
44767;DHT22;30487;48.716;9.272;2024-02-15T10:19:22;23.80;83.60
44767;DHT22;30487;48.716;9.272;2024-02-15T10:21:54;24.10;83.10
44767;DHT22;30487;48.716;9.272;2024-02-15T10:24:23;24.40;81.30
44767;DHT22;30487;48.716;9.272;2024-02-15T10:26:50;24.70;79.90
44767;DHT22;30487;48.716;9.272;2024-02-15T10:29:16;25.00;78.30
44767;DHT22;30487;48.716;9.272;2024-02-15T10:31:53;25.10;77.90
44767;DHT22;30487;48.716;9.272;2024-02-15T10:34:20;25.50;77.50
44767;DHT22;30487;48.716;9.272;2024-02-15T10:36:46;25.70;76.00
44767;DHT22;30487;48.716;9.272;2024-02-15T10:39:16;25.90;75.30
44767;DHT22;30487;48.716;9.272;2024-02-15T10:41:50;26.20;74.60
44767;DHT22;30487;48.716;9.272;2024-02-15T10:44:25;26.40;72.70
44767;DHT22;30487;48.716;9.272;2024-02-15T10:46:53;26.80;72.20
44767;DHT22;30487;48.716;9.272;2024-02-15T10:49:23;27.10;71.00
44767;DHT22;30487;48.716;9.272;2024-02-15T10:51:58;27.30;69.80
44767;DHT22;30487;48.716;9.272;2024-02-15T10:57:31;27.80;68.30
44767;DHT22;30487;48.716;9.272;2024-02-15T10:59:58;28.20;67.10
44767;DHT22;30487;48.716;9.272;2024-02-15T11:02:30;28.50;66.40
44767;DHT22;30487;48.716;9.272;2024-02-15T11:05:01;28.80;65.60
44767;DHT22;30487;48.716;9.272;2024-02-15T11:07:29;28.80;64.30
44767;DHT22;30487;48.716;9.272;2024-02-15T11:09:56;29.00;63.20
44767;DHT22;30487;48.716;9.272;2024-02-15T11:12:25;29.10;62.00
44767;DHT22;30487;48.716;9.272;2024-02-15T11:14:52;29.50;62.00
44767;DHT22;30487;48.716;9.272;2024-02-15T11:20:05;30.00;61.00
44767;DHT22;30487;48.716;9.272;2024-02-15T11:22:37;30.10;60.00
44767;DHT22;30487;48.716;9.272;2024-02-15T11:25:04;30.30;59.70
44767;DHT22;30487;48.716;9.272;2024-02-15T11:27:38;30.60;58.80
44767;DHT22;30487;48.716;9.272;2024-02-15T11:30:05;30.80;59.10
44767;DHT22;30487;48.716;9.272;2024-02-15T11:32:50;30.70;58.20
44767;DHT22;30487;48.716;9.272;2024-02-15T11:35:24;31.10;57.70
44767;DHT22;30487;48.716;9.272;2024-02-15T11:40:26;31.50;56.80
44767;DHT22;30487;48.716;9.272;2024-02-15T11:42:59;31.30;56.40
44767;DHT22;30487;48.716;9.272;2024-02-15T11:45:27;31.30;56.10
44767;DHT22;30487;48.716;9.272;2024-02-15T11:47:58;31.50;56.10
44767;DHT22;30487;48.716;9.272;2024-02-15T11:50:24;31.90;55.40
44767;DHT22;30487;48.716;9.272;2024-02-15T11:52:51;31.80;55.80
44767;DHT22;30487;48.716;9.272;2024-02-15T11:55:22;31.30;55.30
44767;DHT22;30487;48.716;9.272;2024-02-15T11:57:58;31.00;56.00
44767;DHT22;30487;48.716;9.272;2024-02-15T12:00:36;30.80;55.70
44767;DHT22;30487;48.716;9.272;2024-02-15T12:03:21;30.70;55.30
44767;DHT22;30487;48.716;9.272;2024-02-15T12:06:05;30.70;54.90
44767;DHT22;30487;48.716;9.272;2024-02-15T12:08:52;30.80;54.90
44767;DHT22;30487;48.716;9.272;2024-02-15T12:11:36;30.70;54.60
44767;DHT22;30487;48.716;9.272;2024-02-15T12:14:21;30.30;55.90
44767;DHT22;30487;48.716;9.272;2024-02-15T12:17:07;30.30;55.70
44767;DHT22;30487;48.716;9.272;2024-02-15T12:19:54;29.90;55.70
44767;DHT22;30487;48.716;9.272;2024-02-15T12:25:01;30.10;54.60
44767;DHT22;30487;48.716;9.272;2024-02-15T12:27:31;30.40;55.20
44767;DHT22;30487;48.716;9.272;2024-02-15T12:29:57;30.00;55.30
44767;DHT22;30487;48.716;9.272;2024-02-15T12:32:27;29.80;55.20
44767;DHT22;30487;48.716;9.272;2024-02-15T12:34:53;29.40;55.40
44767;DHT22;30487;48.716;9.272;2024-02-15T12:37:34;28.90;55.40
44767;DHT22;30487;48.716;9.272;2024-02-15T12:40:10;28.40;55.80
44767;DHT22;30487;48.716;9.272;2024-02-15T12:42:39;27.90;56.20
44767;DHT22;30487;48.716;9.272;2024-02-15T12:45:05;27.70;56.40
44767;DHT22;30487;48.716;9.272;2024-02-15T12:47:33;27.30;56.70
44767;DHT22;30487;48.716;9.272;2024-02-15T12:50:13;27.00;57.20
44767;DHT22;30487;48.716;9.272;2024-02-15T12:52:39;26.90;58.00
44767;DHT22;30487;48.716;9.272;2024-02-15T12:57:34;26.60;58.10
44767;DHT22;30487;48.716;9.272;2024-02-15T13:00:01;26.50;58.10
44767;DHT22;30487;48.716;9.272;2024-02-15T13:02:36;26.40;58.30
44767;DHT22;30487;48.716;9.272;2024-02-15T13:05:04;26.30;58.20
44767;DHT22;30487;48.716;9.272;2024-02-15T13:07:30;26.10;58.40
44767;DHT22;30487;48.716;9.272;2024-02-15T13:09:56;26.00;58.70
44767;DHT22;30487;48.716;9.272;2024-02-15T13:12:22;25.70;59.10
44767;DHT22;30487;48.716;9.272;2024-02-15T13:14:49;25.30;59.20
44767;DHT22;30487;48.716;9.272;2024-02-15T13:17:15;25.10;59.40
44767;DHT22;30487;48.716;9.272;2024-02-15T13:19:45;24.70;60.00
44767;DHT22;30487;48.716;9.272;2024-02-15T13:22:17;24.40;60.80
44767;DHT22;30487;48.716;9.272;2024-02-15T13:24:44;24.10;61.60
44767;DHT22;30487;48.716;9.272;2024-02-15T13:27:10;23.80;62.40
44767;DHT22;30487;48.716;9.272;2024-02-15T13:29:38;23.50;63.00
44767;DHT22;30487;48.716;9.272;2024-02-15T13:32:05;23.20;63.60
44767;DHT22;30487;48.716;9.272;2024-02-15T13:34:31;22.90;64.10
44767;DHT22;30487;48.716;9.272;2024-02-15T13:36:58;22.60;64.50
44767;DHT22;30487;48.716;9.272;2024-02-15T13:39:27;22.40;64.80
44767;DHT22;30487;48.716;9.272;2024-02-15T13:42:01;22.20;65.40
44767;DHT22;30487;48.716;9.272;2024-02-15T13:44:27;22.00;66.00
44767;DHT22;30487;48.716;9.272;2024-02-15T13:46:53;21.80;66.30
44767;DHT22;30487;48.716;9.272;2024-02-15T13:49:21;21.70;67.20
44767;DHT22;30487;48.716;9.272;2024-02-15T13:51:47;21.60;67.50
44767;DHT22;30487;48.716;9.272;2024-02-15T13:54:12;21.50;67.50
44767;DHT22;30487;48.716;9.272;2024-02-15T13:56:38;21.40;67.90
44767;DHT22;30487;48.716;9.272;2024-02-15T13:59:05;21.40;68.00
44767;DHT22;30487;48.716;9.272;2024-02-15T14:01:31;21.40;68.00
44767;DHT22;30487;48.716;9.272;2024-02-15T14:03:57;21.40;68.10
44767;DHT22;30487;48.716;9.272;2024-02-15T14:06:22;21.50;68.20
44767;DHT22;30487;48.716;9.272;2024-02-15T14:08:49;21.40;69.40
44767;DHT22;30487;48.716;9.272;2024-02-15T14:11:16;21.50;68.70
44767;DHT22;30487;48.716;9.272;2024-02-15T14:13:43;21.60;68.60
44767;DHT22;30487;48.716;9.272;2024-02-15T14:16:08;21.60;68.00
44767;DHT22;30487;48.716;9.272;2024-02-15T14:18:34;21.50;68.20
44767;DHT22;30487;48.716;9.272;2024-02-15T14:21:00;21.40;68.30
44767;DHT22;30487;48.716;9.272;2024-02-15T14:23:26;21.30;68.40
44767;DHT22;30487;48.716;9.272;2024-02-15T14:25:53;21.30;68.60
44767;DHT22;30487;48.716;9.272;2024-02-15T14:28:19;21.20;68.90
44767;DHT22;30487;48.716;9.272;2024-02-15T14:30:45;21.20;69.30
44767;DHT22;30487;48.716;9.272;2024-02-15T14:33:28;21.20;69.30
44767;DHT22;30487;48.716;9.272;2024-02-15T14:35:54;21.20;69.70
44767;DHT22;30487;48.716;9.272;2024-02-15T14:38:21;21.30;69.60
44767;DHT22;30487;48.716;9.272;2024-02-15T14:40:50;21.30;69.50
44767;DHT22;30487;48.716;9.272;2024-02-15T14:43:20;21.30;69.70
44767;DHT22;30487;48.716;9.272;2024-02-15T14:45:47;21.30;69.60
44767;DHT22;30487;48.716;9.272;2024-02-15T14:48:13;21.30;70.30
44767;DHT22;30487;48.716;9.272;2024-02-15T14:50:39;21.30;70.40
44767;DHT22;30487;48.716;9.272;2024-02-15T14:53:05;21.30;70.00
44767;DHT22;30487;48.716;9.272;2024-02-15T14:55:33;21.50;69.90
44767;DHT22;30487;48.716;9.272;2024-02-15T14:57:59;21.60;69.80
44767;DHT22;30487;48.716;9.272;2024-02-15T15:00:26;21.70;70.30
44767;DHT22;30487;48.716;9.272;2024-02-15T15:02:53;21.80;69.60
44767;DHT22;30487;48.716;9.272;2024-02-15T15:05:22;21.80;69.30
44767;DHT22;30487;48.716;9.272;2024-02-15T15:08:06;22.00;69.30
44767;DHT22;30487;48.716;9.272;2024-02-15T15:10:50;22.10;68.90
44767;DHT22;30487;48.716;9.272;2024-02-15T15:13:35;22.20;68.80
44767;DHT22;30487;48.716;9.272;2024-02-15T15:16:01;22.20;69.00
44767;DHT22;30487;48.716;9.272;2024-02-15T15:18:32;22.00;68.50
44767;DHT22;30487;48.716;9.272;2024-02-15T15:20:59;21.90;69.40
44767;DHT22;30487;48.716;9.272;2024-02-15T15:27:01;21.50;69.40
44767;DHT22;30487;48.716;9.272;2024-02-15T15:29:27;21.20;70.10
44767;DHT22;30487;48.716;9.272;2024-02-15T15:31:53;21.00;70.00
44767;DHT22;30487;48.716;9.272;2024-02-15T15:34:18;20.80;70.90
44767;DHT22;30487;48.716;9.272;2024-02-15T15:36:45;20.70;71.00
44767;DHT22;30487;48.716;9.272;2024-02-15T15:39:13;20.40;72.00
44767;DHT22;30487;48.716;9.272;2024-02-15T15:41:39;20.30;71.50
44767;DHT22;30487;48.716;9.272;2024-02-15T15:44:05;20.10;72.50
44767;DHT22;30487;48.716;9.272;2024-02-15T15:46:31;20.00;72.60
44767;DHT22;30487;48.716;9.272;2024-02-15T15:48:59;19.80;73.10
44767;DHT22;30487;48.716;9.272;2024-02-15T15:51:25;19.70;73.20
44767;DHT22;30487;48.716;9.272;2024-02-15T15:53:52;19.60;73.80
44767;DHT22;30487;48.716;9.272;2024-02-15T15:56:20;19.40;74.60
44767;DHT22;30487;48.716;9.272;2024-02-15T15:58:47;19.30;75.30